Time;durP1;ratioP1;P1;durP2;ratioP2;P2;SDS_P1;SDS_P2;PMS_P1;PMS_P2;Temp;Humidity;BMP_temperature;BMP_pressure;BME280_temperature;BME280_humidity;BME280_pressure;Samples;Min_cycle;Max_cycle;Signal;HPM_P1;HPM_P2
2022/09/30 00:01:31;;;;;;;5.95;4.10;;;8.30;99.90;;;;;;5090578;28;20036;-77
2022/09/30 00:03:58;;;;;;;5.28;4.13;;;8.40;99.90;;;;;;5090925;28;20082;-77
2022/09/30 00:06:25;;;;;;;6.32;4.38;;;8.40;99.90;;;;;;5090964;28;20082;-77
2022/09/30 00:08:52;;;;;;;7.28;4.28;;;8.40;99.90;;;;;;5091050;28;20397;-77
2022/09/30 00:11:29;;;;;;;6.20;4.10;;;8.40;99.90;;;;;;5090697;28;20401;-76
2022/09/30 00:13:57;;;;;;;6.63;4.18;;;8.40;99.90;;;;;;5090516;28;20032;-77
2022/09/30 00:16:25;;;;;;;5.18;4.47;;;8.50;99.90;;;;;;5110343;28;20036;-77
2022/09/30 00:18:54;;;;;;;4.88;4.20;;;8.50;99.90;;;;;;5100610;28;20032;-77
2022/09/30 00:21:20;;;;;;;4.75;4.25;;;8.40;99.90;;;;;;5090427;28;20086;-77
2022/09/30 00:23:46;;;;;;;5.68;4.22;;;8.50;99.90;;;;;;5090613;28;20072;-77
2022/09/30 00:26:18;;;;;;;5.28;3.70;;;8.40;99.90;;;;;;5090398;28;20047;-77
2022/09/30 00:28:48;;;;;;;5.53;3.90;;;8.40;99.90;;;;;;5090321;28;20036;-77
2022/09/30 00:31:16;;;;;;;5.18;4.03;;;8.30;99.90;;;;;;5072340;28;20080;-77
2022/09/30 00:33:42;;;;;;;4.55;3.92;;;8.20;99.90;;;;;;5088891;28;20602;-77
2022/09/30 00:36:09;;;;;;;4.72;4.00;;;8.10;99.90;;;;;;5090774;28;20556;-77
2022/09/30 00:38:34;;;;;;;4.18;3.13;;;8.10;99.90;;;;;;5090420;28;20071;-77
2022/09/30 00:41:02;;;;;;;4.15;2.90;;;8.10;99.90;;;;;;5090315;28;20076;-77
2022/09/30 00:44:00;;;;;;;4.57;3.25;;;8.10;99.90;;;;;;5090568;28;20104;-77
2022/09/30 00:46:28;;;;;;;4.00;3.50;;;8.10;99.90;;;;;;5068030;28;20048;-77
2022/09/30 00:48:57;;;;;;;4.47;3.75;;;8.10;99.90;;;;;;5090571;28;20538;-77
2022/09/30 00:51:34;;;;;;;5.05;3.55;;;8.10;99.90;;;;;;5073065;28;20036;-77
2022/09/30 00:54:07;;;;;;;5.25;3.60;;;8.00;99.90;;;;;;5090447;28;20028;-77
2022/09/30 00:56:38;;;;;;;6.65;3.47;;;8.00;99.90;;;;;;5090355;28;20047;-77
2022/09/30 00:59:04;;;;;;;5.63;3.42;;;8.00;99.90;;;;;;5090504;28;20494;-77
2022/09/30 01:01:30;;;;;;;4.45;2.95;;;8.00;99.90;;;;;;5090408;28;20043;-78
2022/09/30 01:04:09;;;;;;;24.23;4.65;;;7.90;99.90;;;;;;5094379;28;20506;-77
2022/09/30 01:06:35;;;;;;;87.65;5.13;;;7.90;99.90;;;;;;5094108;28;20047;-77
2022/09/30 01:09:01;;;;;;;9.93;3.25;;;7.80;99.90;;;;;;5094387;28;20036;-78
2022/09/30 01:11:27;;;;;;;2.97;2.30;;;7.70;99.90;;;;;;5077038;28;20039;-78
2022/09/30 01:13:58;;;;;;;3.47;2.47;;;7.70;99.90;;;;;;5093919;28;20035;-77
2022/09/30 01:16:39;;;;;;;2.85;2.50;;;7.60;99.90;;;;;;5093960;28;20032;-77
2022/09/30 01:19:21;;;;;;;3.33;2.50;;;7.60;99.90;;;;;;5093847;28;20115;-77
2022/09/30 01:22:34;;;;;;;4.05;2.50;;;7.60;99.90;;;;;;5093932;28;20052;-78
2022/09/30 01:25:21;;;;;;;3.80;2.83;;;7.50;99.90;;;;;;5047602;28;20056;-77
2022/09/30 01:28:17;;;;;;;3.50;3.00;;;7.50;99.90;;;;;;5093662;28;20119;-78
2022/09/30 01:31:02;;;;;;;4.25;3.22;;;7.40;99.90;;;;;;5093602;28;20060;-78
2022/09/30 01:33:36;;;;;;;8.57;3.78;;;7.40;99.90;;;;;;5093780;28;20044;-78
2022/09/30 01:36:16;;;;;;;5.80;3.45;;;7.40;99.90;;;;;;5092870;28;20414;-78
2022/09/30 01:38:54;;;;;;;4.40;3.20;;;7.40;99.90;;;;;;5076601;28;20119;-77
2022/09/30 01:41:29;;;;;;;4.03;3.08;;;7.40;99.90;;;;;;5093482;28;20068;-77
2022/09/30 01:44:05;;;;;;;3.97;3.28;;;7.40;99.90;;;;;;5093324;28;20122;-78
2022/09/30 01:46:43;;;;;;;3.92;3.42;;;7.40;99.90;;;;;;5093498;28;20028;-78
2022/09/30 01:49:15;;;;;;;3.92;3.53;;;7.30;99.90;;;;;;5093382;28;20043;-78
2022/09/30 01:52:00;;;;;;;4.47;3.30;;;7.30;99.90;;;;;;5093292;28;20036;-78
2022/09/30 01:54:55;;;;;;;4.38;3.53;;;7.30;99.90;;;;;;5076487;28;20067;-78
2022/09/30 01:57:24;;;;;;;4.95;3.80;;;7.30;99.90;;;;;;5093117;28;20040;-78
2022/09/30 02:00:11;;;;;;;26.33;3.80;;;7.30;99.90;;;;;;5093298;28;20040;-78
2022/09/30 02:03:04;;;;;;;3.60;2.92;;;7.30;99.90;;;;;;5092573;28;20044;-78
2022/09/30 02:05:40;;;;;;;5.60;3.33;;;7.10;99.90;;;;;;5092948;28;20043;-78
2022/09/30 02:08:16;;;;;;;4.47;3.40;;;7.10;99.90;;;;;;5076070;28;20043;-78
2022/09/30 02:10:46;;;;;;;4.95;3.28;;;7.20;99.90;;;;;;5092892;28;20043;-78
2022/09/30 02:13:22;;;;;;;4.13;3.72;;;7.20;99.90;;;;;;5091400;28;20081;-78
2022/09/30 02:16:11;;;;;;;3.83;3.28;;;7.20;99.90;;;;;;5076082;28;20039;-77
2022/09/30 02:19:00;;;;;;;4.70;3.55;;;7.20;99.90;;;;;;5092681;28;20039;-78
2022/09/30 02:21:32;;;;;;;3.40;3.05;;;7.20;99.90;;;;;;5092356;28;20046;-78
2022/09/30 02:24:04;;;;;;;4.03;3.42;;;7.20;99.90;;;;;;5075696;28;20040;-77
2022/09/30 02:26:38;;;;;;;3.53;3.17;;;7.10;99.90;;;;;;5092822;28;20408;-78
2022/09/30 02:29:06;;;;;;;;;;;7.10;99.90;;;;;;5092951;28;20040;-78
2022/09/30 02:31:36;;;;;;;20.38;4.15;;;7.10;99.90;;;;;;5092250;28;19955;-78
2022/09/30 02:34:14;;;;;;;27.75;4.38;;;7.10;99.90;;;;;;5075765;28;20480;-78
2022/09/30 02:36:45;;;;;;;12.85;4.75;;;7.10;99.90;;;;;;5092415;28;20048;-77
2022/09/30 02:39:24;;;;;;;7.55;3.13;;;7.10;99.90;;;;;;5092334;28;20040;-78
2022/09/30 02:41:57;;;;;;;7.15;2.95;;;7.00;99.90;;;;;;5092005;28;20028;-77
2022/09/30 02:44:23;;;;;;;13.05;3.53;;;7.00;99.90;;;;;;5092176;28;20050;-77
2022/09/30 02:47:14;;;;;;;43.70;3.80;;;6.90;99.90;;;;;;5092111;28;20036;-77
2022/09/30 02:49:48;;;;;;;20.10;3.40;;;6.90;99.90;;;;;;5092140;28;20042;-77
2022/09/30 02:52:23;;;;;;;11.85;2.78;;;6.80;99.90;;;;;;5101249;28;20112;-78
2022/09/30 02:55:13;;;;;;;3.83;2.30;;;6.80;99.90;;;;;;5112704;28;20118;-78
2022/09/30 02:58:13;;;;;;;2.95;2.30;;;6.70;99.90;;;;;;5104924;28;20067;-78
2022/09/30 03:00:39;;;;;;;2.42;2.22;;;6.70;99.90;;;;;;5074945;28;20035;-78
2022/09/30 03:03:13;;;;;;;2.33;2.13;;;6.80;99.90;;;;;;5091600;28;20047;-78
2022/09/30 03:05:39;;;;;;;;;;;6.70;99.90;;;;;;5092145;28;20040;-78
2022/09/30 03:08:05;;;;;;;2.40;2.20;;;6.80;99.90;;;;;;5091697;28;19916;-77
2022/09/30 03:10:32;;;;;;;2.35;2.00;;;6.80;99.90;;;;;;5091799;28;20066;-77
2022/09/30 03:13:15;;;;;;;2.42;2.08;;;6.80;99.90;;;;;;5074422;28;20107;-77
2022/09/30 03:15:45;;;;;;;2.95;2.35;;;6.80;99.90;;;;;;5091163;28;20405;-78
2022/09/30 03:18:44;;;;;;;2.45;2.00;;;6.80;99.90;;;;;;5090691;28;20036;-77
2022/09/30 03:21:36;;;;;;;2.40;2.20;;;6.80;99.90;;;;;;5091682;28;20488;-77
2022/09/30 03:24:22;;;;;;;2.50;2.30;;;6.80;99.90;;;;;;5091415;28;20058;-77
2022/09/30 03:27:00;;;;;;;2.60;2.40;;;6.80;99.90;;;;;;5091564;28;20051;-77
2022/09/30 03:29:53;;;;;;;2.90;2.42;;;6.70;99.90;;;;;;5091485;28;20032;-77
2022/09/30 03:32:33;;;;;;;3.72;2.60;;;6.70;99.90;;;;;;5074254;28;20044;-77
2022/09/30 03:35:05;;;;;;;2.63;2.10;;;6.60;99.90;;;;;;5091573;28;20040;-77
2022/09/30 03:38:00;;;;;;;3.50;2.03;;;6.60;99.90;;;;;;5091207;28;20054;-77
2022/09/30 03:40:29;;;;;;;3.38;2.28;;;6.60;99.90;;;;;;5091057;28;20032;-78
2022/09/30 03:43:15;;;;;;;3.15;2.20;;;6.60;99.90;;;;;;5091123;28;20056;-78
2022/09/30 03:45:49;;;;;;;2.63;2.42;;;6.70;99.90;;;;;;5074276;28;20542;-77
2022/09/30 03:48:15;;;;;;;4.03;2.30;;;6.60;99.90;;;;;;5091128;28;20047;-77
2022/09/30 03:50:41;;;;;;;3.20;2.15;;;6.60;99.90;;;;;;5090753;28;20657;-78
2022/09/30 03:53:11;;;;;;;3.50;2.63;;;6.60;99.90;;;;;;5091179;28;20040;-77
2022/09/30 03:55:51;;;;;;;5.18;2.75;;;6.50;99.90;;;;;;5091140;28;20448;-78
2022/09/30 03:58:19;;;;;;;3.78;3.28;;;6.50;99.90;;;;;;5091273;28;20040;-78
2022/09/30 04:00:51;;;;;;;3.97;2.83;;;6.50;99.90;;;;;;5090828;28;20525;-79
2022/09/30 04:03:18;;;;;;;3.70;3.10;;;6.50;99.90;;;;;;5090836;28;20040;-78
2022/09/30 04:05:44;;;;;;;3.30;2.90;;;6.40;99.90;;;;;;5073846;28;20067;-78
2022/09/30 04:08:10;;;;;;;4.95;3.05;;;6.50;99.90;;;;;;5091105;28;20119;-77
2022/09/30 04:10:38;;;;;;;3.55;3.03;;;6.40;99.90;;;;;;5090683;28;20070;-77
2022/09/30 04:13:03;;;;;;;3.13;2.80;;;6.40;99.90;;;;;;5090550;28;20074;-78
2022/09/30 04:15:29;;;;;;;4.00;3.55;;;6.40;99.90;;;;;;5090750;28;20079;-78
2022/09/30 04:17:54;;;;;;;6.25;3.20;;;6.40;99.90;;;;;;5090483;28;20043;-78
2022/09/30 04:20:20;;;;;;;3.35;2.92;;;6.30;99.90;;;;;;5090706;28;20126;-78
2022/09/30 04:22:45;;;;;;;3.75;3.20;;;6.30;99.90;;;;;;5090177;28;20036;-78
2022/09/30 04:25:11;;;;;;;4.30;3.45;;;6.40;99.90;;;;;;5090361;28;20040;-79
2022/09/30 04:27:37;;;;;;;3.63;3.10;;;6.40;99.90;;;;;;5090583;28;20040;-77
2022/09/30 04:30:03;;;;;;;6.20;3.10;;;6.40;99.90;;;;;;5090534;28;20040;-77
2022/09/30 04:32:29;;;;;;;5.85;3.00;;;6.40;99.90;;;;;;5090014;28;20055;-78
2022/09/30 04:34:54;;;;;;;4.45;2.80;;;6.40;99.90;;;;;;5090621;28;20035;-77
2022/09/30 04:37:20;;;;;;;3.60;3.25;;;6.40;99.90;;;;;;5092532;28;20065;-78
2022/09/30 04:39:46;;;;;;;3.40;3.10;;;6.30;99.90;;;;;;5094594;28;20042;-78
2022/09/30 04:42:11;;;;;;;3.55;3.20;;;6.30;99.90;;;;;;5094216;28;20545;-78
2022/09/30 04:44:37;;;;;;;4.25;3.22;;;6.30;99.90;;;;;;5094504;28;20036;-78
2022/09/30 04:47:02;;;;;;;4.13;2.97;;;6.20;99.90;;;;;;5094348;28;20036;-78
2022/09/30 04:49:28;;;;;;;3.88;3.17;;;6.30;99.90;;;;;;5094495;28;20603;-79
2022/09/30 04:51:54;;;;;;;3.60;3.25;;;6.20;99.90;;;;;;5094011;28;20546;-78
2022/09/30 04:54:20;;;;;;;4.20;3.00;;;6.30;99.90;;;;;;5094257;28;20522;-78
2022/09/30 04:56:45;;;;;;;3.40;3.03;;;6.20;99.90;;;;;;5094667;28;20043;-78
2022/09/30 04:59:11;;;;;;;3.35;3.03;;;6.20;99.90;;;;;;5094210;28;20040;-77
2022/09/30 05:01:38;;;;;;;3.20;2.90;;;6.20;99.90;;;;;;5093773;28;20550;-78
2022/09/30 05:04:03;;;;;;;3.33;3.00;;;6.30;99.90;;;;;;5094375;28;20401;-78
2022/09/30 05:06:29;;;;;;;3.40;2.72;;;6.20;99.90;;;;;;5077147;28;20044;-78
2022/09/30 05:08:54;;;;;;;4.88;3.20;;;6.20;99.90;;;;;;5093473;28;20035;-78
2022/09/30 05:11:21;;;;;;;4.47;3.28;;;6.10;99.90;;;;;;5092766;28;20517;-78
2022/09/30 05:13:47;;;;;;;3.88;3.15;;;6.10;99.90;;;;;;5093880;28;20191;-78
2022/09/30 05:16:14;;;;;;;4.07;3.22;;;6.00;99.90;;;;;;5093889;28;20055;-78
2022/09/30 05:18:41;;;;;;;3.85;3.47;;;6.00;99.90;;;;;;5093806;28;20089;-78
2022/09/30 05:21:08;;;;;;;5.50;3.30;;;5.90;99.90;;;;;;5093842;28;20170;-78
2022/09/30 05:23:34;;;;;;;3.20;2.90;;;6.00;99.90;;;;;;5076750;28;20093;-78
2022/09/30 05:26:00;;;;;;;5.05;3.42;;;6.00;99.90;;;;;;5093736;28;20040;-78
2022/09/30 05:28:26;;;;;;;4.07;3.65;;;6.00;99.90;;;;;;5093599;28;20028;-79
2022/09/30 05:30:58;;;;;;;3.97;3.33;;;6.10;99.90;;;;;;5092715;28;20538;-78
2022/09/30 05:33:24;;;;;;;3.65;3.22;;;6.10;99.90;;;;;;5091612;28;20118;-78
2022/09/30 05:35:49;;;;;;;3.65;3.35;;;6.10;99.90;;;;;;5076919;28;20123;-78
2022/09/30 05:38:15;;;;;;;3.80;3.40;;;6.10;99.90;;;;;;5093972;28;20040;-78
2022/09/30 05:40:40;;;;;;;6.00;3.60;;;6.10;99.90;;;;;;5093457;28;20085;-79
2022/09/30 05:43:06;;;;;;;4.35;3.85;;;6.10;99.90;;;;;;5076422;28;20077;-79
2022/09/30 05:45:33;;;;;;;5.28;4.00;;;6.10;99.90;;;;;;5093392;28;20097;-78
2022/09/30 05:47:59;;;;;;;4.50;4.00;;;6.00;99.90;;;;;;5093151;28;20087;-78
2022/09/30 05:50:25;;;;;;;4.55;3.97;;;6.00;99.90;;;;;;5093483;28;20076;-79
2022/09/30 05:52:50;;;;;;;4.30;3.83;;;6.00;99.90;;;;;;5109168;28;20050;-79
2022/09/30 05:55:17;;;;;;;4.65;4.13;;;6.00;99.90;;;;;;5092227;28;20052;-78
2022/09/30 05:57:47;;;;;;;4.65;3.85;;;6.00;99.90;;;;;;5091816;28;20051;-79
2022/09/30 06:00:13;;;;;;;5.35;4.00;;;6.10;99.90;;;;;;5093024;28;20536;-79
2022/09/30 06:02:40;;;;;;;4.78;4.28;;;6.10;99.90;;;;;;5092316;28;20075;-79
2022/09/30 06:05:06;;;;;;;4.05;3.53;;;6.10;99.90;;;;;;5091076;28;20048;-79
2022/09/30 06:07:33;;;;;;;4.90;4.20;;;6.20;99.90;;;;;;5092079;28;20050;-78
2022/09/30 06:10:00;;;;;;;4.28;3.80;;;6.20;99.90;;;;;;5093188;28;20036;-79
2022/09/30 06:12:27;;;;;;;4.20;3.70;;;6.20;99.90;;;;;;5092836;28;20405;-79
2022/09/30 06:14:54;;;;;;;4.68;4.18;;;6.20;99.90;;;;;;5092774;28;20122;-80
2022/09/30 06:17:19;;;;;;;6.25;4.85;;;6.30;99.90;;;;;;5093031;28;20047;-79
2022/09/30 06:19:45;;;;;;;5.35;4.32;;;6.30;99.90;;;;;;5075987;28;20132;-79
2022/09/30 06:22:10;;;;;;;4.65;3.67;;;6.40;99.90;;;;;;5092602;28;20044;-78
2022/09/30 06:24:36;;;;;;;5.03;4.28;;;6.40;99.90;;;;;;5092628;28;20128;-79
2022/09/30 06:27:02;;;;;;;5.45;4.07;;;6.50;99.90;;;;;;5092451;28;20076;-79
2022/09/30 06:29:27;;;;;;;5.03;4.18;;;6.50;99.90;;;;;;5092576;28;20078;-78
2022/09/30 06:31:53;;;;;;;4.95;4.13;;;6.50;99.90;;;;;;5092416;28;20036;-79
2022/09/30 06:34:19;;;;;;;6.53;4.05;;;6.60;99.90;;;;;;5092688;28;20036;-78
2022/09/30 06:36:44;;;;;;;4.85;4.00;;;6.60;99.90;;;;;;5092359;28;20032;-78
2022/09/30 06:39:10;;;;;;;5.28;4.35;;;6.60;99.90;;;;;;5074817;28;20040;-78
2022/09/30 06:41:42;;;;;;;7.25;4.50;;;6.70;99.90;;;;;;5092329;28;20036;-78
2022/09/30 06:44:07;;;;;;;4.72;4.22;;;6.60;99.90;;;;;;5092513;28;20557;-78
2022/09/30 06:46:34;;;;;;;5.38;4.35;;;6.70;99.90;;;;;;5092155;28;20044;-77
2022/09/30 06:49:00;;;;;;;6.20;4.75;;;6.80;99.90;;;;;;5092182;28;20043;-78
2022/09/30 06:51:28;;;;;;;5.63;4.82;;;6.80;99.90;;;;;;5091879;28;20411;-77
2022/09/30 06:53:55;;;;;;;6.20;4.60;;;6.90;99.90;;;;;;5090988;28;20118;-78
2022/09/30 06:56:20;;;;;;;5.65;4.30;;;6.90;99.90;;;;;;5091480;28;20043;-79
2022/09/30 06:58:46;;;;;;;5.20;4.60;;;7.00;99.90;;;;;;5091694;28;20108;-78
2022/09/30 07:01:13;;;;;;;6.55;4.78;;;7.00;99.90;;;;;;5090861;28;20079;-78
2022/09/30 07:03:40;;;;;;;5.10;4.28;;;7.10;99.90;;;;;;5090980;28;20050;-78
2022/09/30 07:06:06;;;;;;;5.30;4.47;;;7.20;99.90;;;;;;5091271;28;20043;-78
2022/09/30 07:08:33;;;;;;;6.63;5.40;;;7.20;99.90;;;;;;5091665;28;20394;-78
2022/09/30 07:11:01;;;;;;;6.30;5.35;;;7.40;99.90;;;;;;5074639;28;20123;-78
2022/09/30 07:13:27;;;;;;;7.85;5.97;;;7.40;99.90;;;;;;5091504;28;20036;-78
2022/09/30 07:15:55;;;;;;;6.45;5.03;;;7.50;99.90;;;;;;5091549;28;20051;-78
2022/09/30 07:18:21;;;;;;;7.03;5.20;;;7.70;99.90;;;;;;5091632;28;20040;-78
2022/09/30 07:20:51;;;;;;;6.85;5.55;;;7.80;99.90;;;;;;5091153;28;20036;-78
2022/09/30 07:23:17;;;;;;;6.88;5.25;;;7.90;99.90;;;;;;5090229;28;20131;-78
2022/09/30 07:25:55;;;;;;;7.10;5.45;;;8.00;99.90;;;;;;5090202;28;20131;-78
2022/09/30 07:28:26;;;;;;;7.03;5.13;;;8.10;99.90;;;;;;5091479;28;20032;-77
2022/09/30 07:30:54;;;;;;;7.53;5.68;;;8.20;99.90;;;;;;5091699;28;20044;-78
2022/09/30 07:33:19;;;;;;;6.18;5.32;;;8.40;99.90;;;;;;5091251;28;20085;-78
2022/09/30 07:35:53;;;;;;;6.90;5.75;;;8.50;99.90;;;;;;5091452;28;20512;-78
2022/09/30 07:38:21;;;;;;;7.65;6.20;;;8.70;99.90;;;;;;5091242;28;20035;-78
2022/09/30 07:41:02;;;;;;;8.07;6.22;;;8.80;99.90;;;;;;5091114;28;20040;-78
2022/09/30 07:43:39;;;;;;;8.80;6.00;;;9.00;99.90;;;;;;5074134;28;20122;-78
2022/09/30 07:46:12;;;;;;;8.27;5.97;;;9.10;99.90;;;;;;5091057;28;20040;-78
2022/09/30 07:48:43;;;;;;;7.93;6.32;;;9.30;99.90;;;;;;5074369;28;20032;-78
2022/09/30 07:51:15;;;;;;;8.40;6.47;;;9.40;99.90;;;;;;5090862;28;20036;-78
2022/09/30 07:53:43;;;;;;;8.15;6.38;;;9.50;99.90;;;;;;5091783;28;20043;-77
2022/09/30 07:56:10;;;;;;;8.15;6.13;;;9.60;99.90;;;;;;5089793;28;20044;-78
2022/09/30 07:58:36;;;;;;;9.10;7.07;;;9.70;99.90;;;;;;5089481;28;20074;-78
2022/09/30 08:01:02;;;;;;;7.32;6.00;;;9.90;99.90;;;;;;5090747;28;20101;-78
2022/09/30 08:03:28;;;;;;;8.38;6.22;;;10.00;99.90;;;;;;5090838;28;20044;-78
2022/09/30 08:05:54;;;;;;;6.63;5.57;;;10.10;99.90;;;;;;5090683;28;20405;-78
2022/09/30 08:08:20;;;;;;;8.32;6.32;;;10.20;99.90;;;;;;5090690;28;20041;-78
2022/09/30 08:10:45;;;;;;;8.57;6.45;;;10.30;99.90;;;;;;5073470;28;20042;-78
2022/09/30 08:13:15;;;;;;;9.40;6.50;;;10.40;99.90;;;;;;5089805;28;20024;-79
2022/09/30 08:15:41;;;;;;;8.32;6.47;;;10.50;99.90;;;;;;5090731;28;20082;-78
2022/09/30 08:18:06;;;;;;;8.48;6.55;;;10.60;99.90;;;;;;5090839;28;20071;-78
2022/09/30 08:20:32;;;;;;;8.68;6.78;;;10.70;99.90;;;;;;5089802;28;20048;-77
2022/09/30 08:22:57;;;;;;;9.02;6.63;;;10.80;99.90;;;;;;5090227;28;20074;-78
2022/09/30 08:25:25;;;;;;;10.43;6.82;;;10.90;99.90;;;;;;5090336;28;20051;-78
2022/09/30 08:27:50;;;;;;;9.68;7.18;;;11.00;99.90;;;;;;5090396;28;20040;-77
2022/09/30 08:30:16;;;;;;;8.75;6.97;;;11.10;99.90;;;;;;5090432;28;20059;-77
2022/09/30 08:32:42;;;;;;;9.80;6.85;;;11.20;99.90;;;;;;5090279;28;20036;-78
2022/09/30 08:35:08;;;;;;;9.05;7.13;;;11.20;99.90;;;;;;5089573;28;20100;-78
2022/09/30 08:37:33;;;;;;;9.55;7.45;;;11.30;99.90;;;;;;5089903;28;20412;-77
2022/09/30 08:39:59;;;;;;;8.82;6.90;;;11.40;99.90;;;;;;5090304;28;20044;-77
2022/09/30 08:42:53;;;;;;;7.80;6.72;;;11.50;99.90;;;;;;5090204;28;20119;-77
2022/09/30 08:45:43;;;;;;;9.18;7.38;;;11.60;99.90;;;;;;5090268;28;20044;-77
2022/09/30 08:48:27;;;;;;;10.10;7.28;;;11.60;99.90;;;;;;5073907;28;20172;-77
2022/09/30 08:51:19;;;;;;;9.65;7.20;;;11.70;99.90;;;;;;5073401;28;20036;-77
2022/09/30 08:53:46;;;;;;;10.10;6.95;;;11.80;99.90;;;;;;5090285;28;20532;-77
2022/09/30 08:56:26;;;;;;;8.82;6.63;;;12.00;99.90;;;;;;5090184;28;20521;-77
2022/09/30 08:59:03;;;;;;;12.88;8.13;;;12.00;99.90;;;;;;5090201;28;20039;-77
2022/09/30 09:01:38;;;;;;;12.15;8.50;;;12.10;99.90;;;;;;5089207;28;20506;-77
2022/09/30 09:04:06;;;;;;;10.32;7.40;;;12.10;99.90;;;;;;5090071;28;20044;-77
2022/09/30 09:06:38;;;;;;;10.10;7.60;;;12.00;99.90;;;;;;5090053;28;20170;-77
2022/09/30 09:09:16;;;;;;;10.20;7.13;;;11.90;99.90;;;;;;5073689;28;20378;-77
2022/09/30 09:12:07;;;;;;;10.93;7.72;;;11.90;99.90;;;;;;5089960;28;20043;-77
2022/09/30 09:14:56;;;;;;;10.50;8.15;;;11.90;99.90;;;;;;5090265;28;20437;-76
2022/09/30 09:17:41;;;;;;;11.20;7.60;;;11.90;99.90;;;;;;5106676;28;20536;-77
2022/09/30 09:20:16;;;;;;;9.82;6.82;;;11.90;99.90;;;;;;5109766;28;20098;-78
2022/09/30 09:22:44;;;;;;;11.68;8.10;;;11.90;99.90;;;;;;5090663;28;20036;-76
2022/09/30 09:25:26;;;;;;;9.18;7.50;;;11.90;99.90;;;;;;5076148;28;20044;-77
2022/09/30 09:27:57;;;;;;;12.25;7.97;;;12.00;99.90;;;;;;5092666;28;20040;-77
2022/09/30 09:30:24;;;;;;;8.85;7.05;;;12.10;99.90;;;;;;5093587;28;20040;-77
2022/09/30 09:33:10;;;;;;;10.35;7.60;;;12.20;99.90;;;;;;5093731;28;20059;-77
2022/09/30 09:35:51;;;;;;;9.05;7.45;;;12.40;99.90;;;;;;5093761;28;20044;-77
2022/09/30 09:38:34;;;;;;;9.10;6.60;;;12.50;99.90;;;;;;5093450;28;20089;-76
2022/09/30 09:41:25;;;;;;;9.23;6.88;;;12.50;99.90;;;;;;5093187;28;20040;-77
2022/09/30 09:44:22;;;;;;;9.07;6.43;;;12.50;99.90;;;;;;5093567;28;20046;-77
2022/09/30 09:47:12;;;;;;;10.18;6.60;;;12.50;99.90;;;;;;5093417;28;20036;-76
2022/09/30 09:49:45;;;;;;;8.43;7.07;;;12.60;99.90;;;;;;5076584;28;20044;-76
2022/09/30 09:52:27;;;;;;;7.85;5.85;;;12.60;99.90;;;;;;5092920;28;20044;-77
2022/09/30 09:54:56;;;;;;;5.82;5.05;;;12.70;99.90;;;;;;5095943;28;20078;-77
2022/09/30 09:57:26;;;;;;;6.13;5.50;;;12.70;99.90;;;;;;5113769;28;20514;-76
2022/09/30 10:01:04;;;;;;;5.75;5.15;;;12.80;99.90;;;;;;5107183;28;20053;-77
2022/09/30 10:03:02;;;;;;;6.10;4.80;;;12.90;99.90;;;;;;5092934;28;20405;-76
2022/09/30 10:05:29;;;;;;;5.65;4.93;;;13.00;99.90;;;;;;5092926;28;20071;-77
2022/09/30 10:08:30;;;;;;;5.00;4.40;;;13.10;99.90;;;;;;5092828;28;20043;-76
2022/09/30 10:10:59;;;;;;;6.03;5.25;;;13.20;99.90;;;;;;5059625;28;20055;-77
2022/09/30 10:13:28;;;;;;;5.70;4.97;;;13.20;99.90;;;;;;5091661;28;20046;-76
2022/09/30 10:15:56;;;;;;;7.00;5.32;;;13.30;99.90;;;;;;5092762;28;20042;-76
2022/09/30 10:18:33;;;;;;;6.43;5.45;;;13.40;99.90;;;;;;5092650;28;20077;-76
2022/09/30 10:21:01;;;;;;;7.97;6.38;;;13.50;99.90;;;;;;5092543;28;20040;-76
2022/09/30 10:23:38;;;;;;;8.57;6.88;;;13.50;99.90;;;;;;5075624;28;20501;-76
2022/09/30 10:26:13;;;;;;;7.60;6.50;;;13.60;99.90;;;;;;5075773;28;20408;-76
2022/09/30 10:28:52;;;;;;;8.77;6.45;;;13.70;99.90;;;;;;5092508;28;20036;-76
2022/09/30 10:31:31;;;;;;;7.05;6.35;;;13.80;99.90;;;;;;5092467;28;20101;-75
2022/09/30 10:34:10;;;;;;;8.48;6.70;;;13.90;99.90;;;;;;5090781;28;20042;-76
2022/09/30 10:36:38;;;;;;;8.00;7.07;;;13.90;99.90;;;;;;5092137;28;20397;-75
2022/09/30 10:39:18;;;;;;;6.50;5.82;;;14.00;99.90;;;;;;5092626;28;20039;-77
2022/09/30 10:41:44;;;;;;;5.10;3.90;;;14.20;99.90;;;;;;5092197;28;20105;-75
2022/09/30 10:44:17;;;;;;;4.28;3.50;;;14.30;99.90;;;;;;5092143;28;20032;-76
2022/09/30 10:46:45;;;;;;;4.60;3.58;;;14.30;99.90;;;;;;5075225;28;20089;-76
2022/09/30 10:49:38;;;;;;;6.30;2.88;;;14.20;99.90;;;;;;5092452;28;20036;-76
2022/09/30 10:52:03;;;;;;;4.00;2.63;;;14.20;99.90;;;;;;5091815;28;20086;-75
2022/09/30 10:54:44;;;;;;;5.55;3.05;;;14.30;99.90;;;;;;5092189;28;20044;-76
2022/09/30 10:57:30;;;;;;;3.67;2.05;;;14.50;99.90;;;;;;5092413;28;20035;-75
2022/09/30 11:00:08;;;;;;;2.45;2.05;;;14.70;99.90;;;;;;5092165;28;20065;-76
2022/09/30 11:02:45;;;;;;;3.28;2.45;;;14.90;99.90;;;;;;5090958;28;20129;-76
2022/09/30 11:05:42;;;;;;;3.03;2.20;;;15.00;99.90;;;;;;5090664;28;20414;-76
2022/09/30 11:08:24;;;;;;;4.80;2.47;;;15.20;99.90;;;;;;5091840;28;20051;-76
2022/09/30 11:11:17;;;;;;;3.10;1.83;;;15.30;99.90;;;;;;5091884;28;20040;-76
2022/09/30 11:14:01;;;;;;;2.45;1.98;;;15.40;99.90;;;;;;5091748;28;20040;-77
2022/09/30 11:16:56;;;;;;;3.30;1.83;;;15.50;99.90;;;;;;5091855;28;20072;-77
2022/09/30 11:19:31;;;;;;;5.00;1.80;;;15.60;99.90;;;;;;5091918;28;20420;-76
2022/09/30 11:22:08;;;;;;;3.22;1.70;;;15.60;99.90;;;;;;5091662;28;20452;-76
2022/09/30 11:24:39;;;;;;;2.60;1.80;;;15.50;99.90;;;;;;5090892;28;20036;-76
2022/09/30 11:27:19;;;;;;;2.33;1.63;;;15.40;99.90;;;;;;5091464;28;20123;-77
2022/09/30 11:30:15;;;;;;;1.98;1.60;;;15.60;99.90;;;;;;5091495;28;20505;-77
2022/09/30 11:33:02;;;;;;;2.35;1.48;;;15.90;99.90;;;;;;5090957;28;20040;-77
2022/09/30 11:35:53;;;;;;;3.13;1.35;;;16.00;99.90;;;;;;5091571;28;20119;-76
2022/09/30 11:38:43;;;;;;;2.78;1.27;;;16.20;99.90;;;;;;5089875;28;20074;-77
2022/09/30 11:41:28;;;;;;;4.70;1.30;;;16.30;99.90;;;;;;5091095;28;20044;-76
2022/09/30 11:43:59;;;;;;;1.67;1.30;;;16.50;99.90;;;;;;5090990;28;20076;-76
2022/09/30 11:46:46;;;;;;;2.15;1.38;;;16.60;99.90;;;;;;5090915;28;20047;-76
2022/09/30 11:49:44;;;;;;;2.97;1.38;;;16.70;99.90;;;;;;5091153;28;20087;-76
2022/09/30 11:52:31;;;;;;;1.73;1.30;;;17.00;99.90;;;;;;5090580;28;20044;-77
2022/09/30 11:55:05;;;;;;;3.67;1.45;;;17.10;99.90;;;;;;5091448;28;20457;-77
2022/09/30 11:58:03;;;;;;;1.83;1.20;;;17.20;99.90;;;;;;5091445;28;20093;-76
2022/09/30 12:00:30;;;;;;;3.17;1.50;;;17.40;99.90;;;;;;5089639;28;20048;-76
2022/09/30 12:03:04;;;;;;;1.95;1.10;;;17.50;99.90;;;;;;5090394;28;20118;-76
2022/09/30 12:05:44;;;;;;;2.80;1.05;;;17.30;99.90;;;;;;5074246;28;20425;-76
2022/09/30 12:08:33;;;;;;;1.65;1.10;;;17.30;99.90;;;;;;5090952;28;20040;-76
2022/09/30 12:11:06;;;;;;;2.08;1.13;;;17.50;99.90;;;;;;5090668;28;20063;-76
2022/09/30 12:13:40;;;;;;;3.45;1.35;;;17.80;99.90;;;;;;5090968;28;20047;-77
2022/09/30 12:16:12;;;;;;;1.48;1.10;;;17.80;99.90;;;;;;5074205;28;20032;-77
2022/09/30 12:18:43;;;;;;;2.83;1.33;;;17.50;99.90;;;;;;5090910;28;20417;-76
2022/09/30 12:21:22;;;;;;;2.15;1.20;;;17.20;99.90;;;;;;5090312;28;20043;-77
2022/09/30 12:24:01;;;;;;;2.22;1.33;;;17.10;99.90;;;;;;5073598;28;20040;-76
2022/09/30 12:26:27;;;;;;;2.28;1.10;;;17.20;99.90;;;;;;5090636;28;20070;-77
2022/09/30 12:32:15;;;;;;;1.67;1.17;;;17.10;99.90;;;;;;5107190;28;20412;-77
2022/09/30 12:35:02;;;;;;;3.50;1.23;;;17.30;99.90;;;;;;5091521;28;20528;-76
2022/09/30 12:38:06;;;;;;;2.17;1.30;;;17.40;99.90;;;;;;5090280;28;20031;-76
2022/09/30 12:40:58;;;;;;;2.05;0.90;;;17.50;99.90;;;;;;5090479;28;20493;-76
2022/09/30 12:43:47;;;;;;;1.55;0.90;;;17.60;99.90;;;;;;5073510;28;20085;-77
2022/09/30 12:46:15;;;;;;;0.82;0.73;;;17.50;99.90;;;;;;5090329;28;20044;-77
2022/09/30 12:48:50;;;;;;;1.45;0.80;;;17.40;99.90;;;;;;5090563;28;20041;-77
2022/09/30 12:51:25;;;;;;;1.70;1.00;;;17.50;99.90;;;;;;5090346;28;20055;-77
2022/09/30 12:54:03;;;;;;;1.83;0.80;;;17.40;99.90;;;;;;5090511;28;20400;-76
2022/09/30 12:56:30;;;;;;;2.28;0.80;;;17.30;99.90;;;;;;5090302;28;20139;-77
2022/09/30 12:58:56;;;;;;;1.88;0.90;;;17.20;99.90;;;;;;5093530;28;20536;-77
2022/09/30 13:01:29;;;;;;;2.25;0.95;;;17.30;99.90;;;;;;5093976;28;20123;-77
2022/09/30 13:04:00;;;;;;;1.55;1.00;;;17.30;99.90;;;;;;5094145;28;20046;-77
2022/09/30 13:06:47;;;;;;;1.33;0.82;;;17.30;99.90;;;;;;5077142;28;20040;-77
2022/09/30 13:09:15;;;;;;;3.60;1.00;;;17.30;99.90;;;;;;5093859;28;20040;-77
2022/09/30 13:11:53;;;;;;;1.23;1.00;;;17.10;99.90;;;;;;5094192;28;20101;-77
2022/09/30 13:14:43;;;;;;;1.90;0.90;;;16.90;99.90;;;;;;5094209;28;20066;-77
2022/09/30 13:17:09;;;;;;;5.43;1.13;;;17.00;99.90;;;;;;5093991;28;20046;-76
2022/09/30 13:19:44;;;;;;;2.72;1.25;;;17.10;99.90;;;;;;5093883;28;20115;-77
2022/09/30 13:22:19;;;;;;;1.75;1.20;;;17.10;99.90;;;;;;5093634;28;20071;-76
2022/09/30 13:24:59;;;;;;;2.58;1.27;;;17.30;99.90;;;;;;5094035;28;20055;-79
2022/09/30 13:27:45;;;;;;;1.85;1.30;;;17.50;99.90;;;;;;5094025;28;20044;-76
2022/09/30 13:30:17;;;;;;;2.22;1.55;;;17.70;99.90;;;;;;5093896;28;20032;-76